Swayzee, Indiana
Current Conditions -  °F | °C
As of 8:55 AM on Friday 24 Oct 2014 (Local Time) from KMZZ Reporting Station
Haze Haze  
Wind Chill: 38°   Ceiling: Unl
Heat Index: 41°   Visibility: 4mi
Dew Point: 38°   Wind: 5mph
Humidity: 88%   Direction: 140°SE
Pressure: 30.11"   Gusts: NA
Location:  40.51°N, 85.83°W
Report Text: KMZZ 241255Z AUTO 14004KT 4SM BR SCT060 SCT075 05/03 A3011 RMK AO2 T00510033
Loading
Personal Weather Stations






























Interactive Weather Map New forecast layout! Learn more

10-Day Weather Forecast

Advertisements
Track Severe Weather on mobile